Time;durP1;ratioP1;P1;durP2;ratioP2;P2;SDS_P1;SDS_P2;PMS_P1;PMS_P2;Temp;Humidity;BMP_temperature;BMP_pressure;BME280_temperature;BME280_humidity;BME280_pressure;Samples;Min_cycle;Max_cycle;Signal;HPM_P1;HPM_P2
2024/04/12 00:01:18;;;;;;;7.47;6.78;;;;;;;;;;5621562;26;20030;-82
2024/04/12 00:03:56;;;;;;;8.27;6.38;;;;;;;;;;5584504;26;20011;-82
2024/04/12 00:06:33;;;;;;;9.63;7.40;;;;;;;;;;5572406;26;20055;-82
2024/04/12 00:09:17;;;;;;;9.00;7.05;;;;;;;;;;5620400;26;20137;-82
2024/04/12 00:11:50;;;;;;;7.97;6.10;;;;;;;;;;5623920;26;20003;-82
2024/04/12 00:14:25;;;;;;;10.75;7.28;;;;;;;;;;5606054;26;20007;-82
2024/04/12 00:16:58;;;;;;;;;;;;;;;;;;5621471;26;20007;-82
2024/04/12 00:19:37;;;;;;;7.63;6.70;;;;;;;;;;5573001;26;19996;-82
2024/04/12 00:22:09;;;;;;;8.43;6.13;;;;;;;;;;5613148;26;20403;-82
2024/04/12 00:24:45;;;;;;;8.75;6.70;;;;;;;;;;5588745;26;20019;-81
2024/04/12 00:27:25;;;;;;;10.38;7.13;;;;;;;;;;5586966;26;20007;-82
2024/04/12 00:30:03;;;;;;;8.05;6.95;;;;;;;;;;5642200;26;20013;-83
2024/04/12 00:32:35;;;;;;;8.10;7.30;;;;;;;;;;5615954;26;20031;-82
2024/04/12 00:35:19;;;;;;;7.90;7.03;;;;;;;;;;5625822;26;20015;-82
2024/04/12 00:37:53;;;;;;;9.13;6.85;;;;;;;;;;5625336;26;20003;-82
2024/04/12 00:40:29;;;;;;;7.70;6.57;;;;;;;;;;5621785;26;20911;-82
2024/04/12 00:43:11;;;;;;;8.43;6.40;;;;;;;;;;5615714;26;20051;-82
2024/04/12 00:45:48;;;;;;;10.45;6.90;;;;;;;;;;5634191;26;20017;-82
2024/04/12 00:48:26;;;;;;;8.15;6.72;;;;;;;;;;5616018;26;20014;-82
2024/04/12 00:51:09;;;;;;;7.97;7.18;;;;;;;;;;5621938;26;20453;-82
2024/04/12 00:53:46;;;;;;;10.70;7.65;;;;;;;;;;5619699;26;20021;-82
2024/04/12 00:56:21;;;;;;;9.32;7.65;;;;;;;;;;5649106;26;20022;-82
2024/04/12 00:58:55;;;;;;;8.93;7.53;;;;;;;;;;5573495;26;20724;-82
2024/04/12 01:01:30;;;;;;;9.07;7.20;;;;;;;;;;5629769;26;20034;-82
2024/04/12 01:04:06;;;;;;;8.95;7.88;;;;;;;;;;5624238;26;20574;-82
2024/04/12 01:06:46;;;;;;;8.13;7.33;;;;;;;;;;5630873;26;20010;-82
2024/04/12 01:09:22;;;;;;;9.43;7.93;;;;;;;;;;5616396;26;20033;-82
2024/04/12 01:12:03;;;;;;;9.85;7.97;;;;;;;;;;5616786;26;20018;-82
2024/04/12 01:14:35;;;;;;;10.25;8.00;;;;;;;;;;5625919;26;20048;-82
2024/04/12 01:17:10;;;;;;;9.18;7.78;;;;;;;;;;5628030;26;20013;-82
2024/04/12 01:19:46;;;;;;;9.35;8.23;;;;;;;;;;5625487;26;19999;-82
2024/04/12 01:22:30;;;;;;;9.25;7.57;;;;;;;;;;5612821;26;20002;-82
2024/04/12 01:25:05;;;;;;;9.88;8.20;;;;;;;;;;5618385;26;20006;-82
2024/04/12 01:27:40;;;;;;;12.52;8.63;;;;;;;;;;5616804;26;20323;-82
2024/04/12 01:30:20;;;;;;;8.93;8.02;;;;;;;;;;5619121;26;20002;-82
2024/04/12 01:32:58;;;;;;;11.07;9.10;;;;;;;;;;5607235;26;20003;-82
2024/04/12 01:35:33;;;;;;;9.30;8.30;;;;;;;;;;5620986;26;20006;-82
2024/04/12 01:38:16;;;;;;;9.18;8.00;;;;;;;;;;5597455;26;20053;-82
2024/04/12 01:40:57;;;;;;;9.07;8.18;;;;;;;;;;5591898;26;20084;-82
2024/04/12 01:43:36;;;;;;;10.32;8.73;;;;;;;;;;5611200;26;20022;-82
2024/04/12 01:46:12;;;;;;;9.07;8.00;;;;;;;;;;5597297;26;20003;-82
2024/04/12 01:48:47;;;;;;;9.70;8.65;;;;;;;;;;5596989;26;20011;-82
2024/04/12 01:51:24;;;;;;;9.27;8.25;;;;;;;;;;5594072;26;20076;-82
2024/04/12 01:54:00;;;;;;;9.07;8.10;;;;;;;;;;5595016;26;20042;-82
2024/04/12 01:56:34;;;;;;;8.13;7.32;;;;;;;;;;5612468;26;20048;-82
2024/04/12 01:59:14;;;;;;;9.45;7.72;;;;;;;;;;5584467;26;20018;-83
2024/04/12 02:01:48;;;;;;;9.45;8.45;;;;;;;;;;5583939;26;20467;-82
2024/04/12 02:04:30;;;;;;;8.57;7.68;;;;;;;;;;5562937;26;20341;-82
2024/04/12 02:07:11;;;;;;;10.18;8.60;;;;;;;;;;5585362;26;19999;-82
2024/04/12 02:09:50;;;;;;;9.05;8.15;;;;;;;;;;5619378;26;20021;-82
2024/04/12 02:12:28;;;;;;;8.75;7.95;;;;;;;;;;5586779;26;20010;-82
2024/04/12 02:15:16;;;;;;;12.25;8.43;;;;;;;;;;5601679;26;20007;-82
2024/04/12 02:17:53;;;;;;;10.50;8.50;;;;;;;;;;5549174;26;20727;-82
2024/04/12 02:20:38;;;;;;;10.60;7.90;;;;;;;;;;5627431;26;20007;-82
2024/04/12 02:23:13;;;;;;;9.15;7.57;;;;;;;;;;5626219;26;20004;-82
2024/04/12 02:25:49;;;;;;;10.52;8.40;;;;;;;;;;5626307;26;20019;-82
2024/04/12 02:28:27;;;;;;;9.98;8.45;;;;;;;;;;5601138;26;20003;-82
2024/04/12 02:31:08;;;;;;;10.13;9.00;;;;;;;;;;5602599;26;20636;-82
2024/04/12 02:33:44;;;;;;;8.45;7.60;;;;;;;;;;5592973;26;20007;-82
2024/04/12 02:36:23;;;;;;;9.45;8.40;;;;;;;;;;5594147;26;20013;-82
2024/04/12 02:39:04;;;;;;;8.80;7.90;;;;;;;;;;5625690;26;20042;-82
2024/04/12 02:41:42;;;;;;;8.70;7.70;;;;;;;;;;5623829;26;19999;-82
2024/04/12 02:44:17;;;;;;;8.07;6.95;;;;;;;;;;5601610;26;20014;-82
2024/04/12 02:46:53;;;;;;;7.55;6.75;;;;;;;;;;5603985;26;20451;-82
2024/04/12 02:49:27;;;;;;;7.72;6.35;;;;;;;;;;5614659;26;20081;-82
2024/04/12 02:52:04;;;;;;;8.75;6.60;;;;;;;;;;5625784;26;20019;-82
2024/04/12 02:54:37;;;;;;;7.13;6.22;;;;;;;;;;5589464;26;20469;-82
2024/04/12 02:57:14;;;;;;;7.70;6.43;;;;;;;;;;5622014;26;20353;-82
2024/04/12 02:59:54;;;;;;;6.25;5.15;;;;;;;;;;5622425;26;20014;-82
2024/04/12 03:02:32;;;;;;;6.88;6.18;;;;;;;;;;5617923;26;20003;-82
2024/04/12 03:05:06;;;;;;;8.20;6.03;;;;;;;;;;5592246;26;20060;-82
2024/04/12 03:07:45;;;;;;;6.68;5.68;;;;;;;;;;5624556;26;20015;-82
2024/04/12 03:10:23;;;;;;;5.95;5.35;;;;;;;;;;5632800;26;20014;-83
2024/04/12 03:13:09;;;;;;;5.75;5.10;;;;;;;;;;5615900;26;20027;-82
2024/04/12 03:15:50;;;;;;;5.88;4.93;;;;;;;;;;5591776;26;20030;-82
2024/04/12 03:18:28;;;;;;;5.80;5.13;;;;;;;;;;5630087;26;20468;-83
2024/04/12 03:21:02;;;;;;;6.32;4.80;;;;;;;;;;5622644;26;20014;-82
2024/04/12 03:23:37;;;;;;;4.97;4.47;;;;;;;;;;5569963;26;20021;-82
2024/04/12 03:26:12;;;;;;;5.45;4.43;;;;;;;;;;5592437;26;20003;-82
2024/04/12 03:28:47;;;;;;;4.97;4.00;;;;;;;;;;5626762;26;20015;-82
2024/04/12 03:31:26;;;;;;;4.07;3.38;;;;;;;;;;5593144;26;21209;-83
2024/04/12 03:34:06;;;;;;;5.20;4.28;;;;;;;;;;5582569;26;20007;-83
2024/04/12 03:36:53;;;;;;;4.95;4.03;;;;;;;;;;5623273;26;20019;-82
2024/04/12 03:39:34;;;;;;;5.72;3.90;;;;;;;;;;5565635;26;20013;-82
2024/04/12 03:42:09;;;;;;;5.03;4.07;;;;;;;;;;5579560;26;20004;-82
2024/04/12 03:44:42;;;;;;;5.70;4.60;;;;;;;;;;5615601;26;20734;-82
2024/04/12 03:47:25;;;;;;;5.18;4.68;;;;;;;;;;5617679;26;20003;-82
2024/04/12 03:50:03;;;;;;;6.03;4.65;;;;;;;;;;5620225;26;20043;-83
2024/04/12 03:52:41;;;;;;;4.15;3.75;;;;;;;;;;5627555;26;19999;-82
2024/04/12 03:55:17;;;;;;;4.95;4.07;;;;;;;;;;5618185;26;20017;-82
2024/04/12 03:58:02;;;;;;;5.85;3.75;;;;;;;;;;5613425;26;20011;-83
2024/04/12 04:00:44;;;;;;;4.40;3.42;;;;;;;;;;5620723;26;20061;-82
2024/04/12 04:03:33;;;;;;;4.75;4.03;;;;;;;;;;5589647;26;20007;-82
2024/04/12 04:06:11;;;;;;;6.38;4.15;;;;;;;;;;5623887;26;20017;-82
2024/04/12 04:08:48;;;;;;;4.32;3.92;;;;;;;;;;5589932;26;19999;-83
2024/04/12 04:11:25;;;;;;;4.80;3.80;;;;;;;;;;5615083;26;20007;-83
2024/04/12 04:14:08;;;;;;;5.88;4.10;;;;;;;;;;5615038;26;20003;-82
2024/04/12 04:16:49;;;;;;;4.63;4.22;;;;;;;;;;5623757;26;20079;-83
2024/04/12 04:19:30;;;;;;;5.03;3.92;;;;;;;;;;5602471;26;20837;-82
2024/04/12 04:22:20;;;;;;;5.03;4.53;;;;;;;;;;5616263;26;20013;-82
2024/04/12 04:24:52;;;;;;;5.45;4.95;;;;;;;;;;5595932;26;20004;-82
2024/04/12 04:27:27;;;;;;;6.13;5.63;;;;;;;;;;5612958;26;20007;-83
2024/04/12 04:30:03;;;;;;;5.35;4.85;;;;;;;;;;5617980;26;20013;-82
2024/04/12 04:32:38;;;;;;;5.32;4.68;;;;;;;;;;5613006;26;20003;-82
2024/04/12 04:35:16;;;;;;;8.23;5.60;;;;;;;;;;5626602;26;20010;-82
2024/04/12 04:37:56;;;;;;;5.90;5.30;;;;;;;;;;5591523;26;20079;-82
2024/04/12 04:40:35;;;;;;;6.75;6.15;;;;;;;;;;5621130;26;20364;-82
2024/04/12 04:43:12;;;;;;;6.68;6.00;;;;;;;;;;5593684;26;19998;-82
2024/04/12 04:45:48;;;;;;;7.05;5.88;;;;;;;;;;5592851;26;20011;-82
2024/04/12 04:48:25;;;;;;;6.47;5.45;;;;;;;;;;5589379;26;20009;-82
2024/04/12 04:51:06;;;;;;;6.60;5.90;;;;;;;;;;5590546;26;20003;-81
2024/04/12 04:53:45;;;;;;;5.82;4.95;;;;;;;;;;5574217;26;20002;-82
2024/04/12 04:56:24;;;;;;;5.53;4.95;;;;;;;;;;5620432;26;20087;-82
2024/04/12 04:59:01;;;;;;;6.55;5.28;;;;;;;;;;5586834;26;20025;-82
2024/04/12 05:01:36;;;;;;;5.78;5.03;;;;;;;;;;5615757;26;19995;-82
2024/04/12 05:04:16;;;;;;;7.43;5.15;;;;;;;;;;5620470;26;19999;-83
2024/04/12 05:06:52;;;;;;;6.35;4.93;;;;;;;;;;5617910;26;20004;-82
2024/04/12 05:09:32;;;;;;;5.40;4.65;;;;;;;;;;5622930;26;19997;-83
2024/04/12 05:12:07;;;;;;;6.75;5.45;;;;;;;;;;5563509;26;20437;-83
2024/04/12 05:14:54;;;;;;;5.10;4.53;;;;;;;;;;5594262;26;20011;-85
2024/04/12 05:17:31;;;;;;;6.45;5.53;;;;;;;;;;5590826;26;19996;-82
2024/04/12 05:20:19;;;;;;;6.75;5.93;;;;;;;;;;5618434;26;20007;-84
2024/04/12 05:23:00;;;;;;;7.55;6.85;;;;;;;;;;5597965;26;20015;-83
2024/04/12 05:25:41;;;;;;;7.38;6.68;;;;;;;;;;5612578;26;20013;-82
2024/04/12 05:28:13;;;;;;;7.80;7.10;;;;;;;;;;5621622;26;20362;-80
2024/04/12 05:30:54;;;;;;;8.07;6.63;;;;;;;;;;5596307;26;20008;-79
2024/04/12 05:33:29;;;;;;;6.68;5.07;;;;;;;;;;5628066;26;20021;-82
2024/04/12 05:36:09;;;;;;;7.40;5.10;;;;;;;;;;5615937;26;20080;-78
2024/04/12 05:38:49;;;;;;;4.90;4.40;;;;;;;;;;5622594;26;20017;-79
2024/04/12 05:41:22;;;;;;;5.07;4.45;;;;;;;;;;5615197;26;20061;-81
2024/04/12 05:43:57;;;;;;;5.55;4.68;;;;;;;;;;5612082;26;21307;-82
2024/04/12 05:46:29;;;;;;;5.72;4.30;;;;;;;;;;5610752;26;20517;-81
2024/04/12 05:49:09;;;;;;;5.53;4.80;;;;;;;;;;5590529;26;20011;-82
2024/04/12 05:51:41;;;;;;;6.53;4.93;;;;;;;;;;5594340;26;20033;-81
2024/04/12 05:54:20;;;;;;;6.32;5.32;;;;;;;;;;5632406;26;20003;-81
2024/04/12 05:56:52;;;;;;;6.10;5.25;;;;;;;;;;5611589;26;20019;-81
2024/04/12 05:59:32;;;;;;;6.07;4.72;;;;;;;;;;5621262;26;19999;-81
2024/04/12 06:02:05;;;;;;;6.95;6.28;;;;;;;;;;5555966;26;20006;-81
2024/04/12 06:04:47;;;;;;;10.85;8.50;;;;;;;;;;5610993;26;20071;-81
2024/04/12 06:07:20;;;;;;;10.20;9.25;;;;;;;;;;5615787;26;20003;-81
2024/04/12 06:09:58;;;;;;;13.40;11.82;;;;;;;;;;5578929;26;20116;-81
2024/04/12 06:12:33;;;;;;;12.40;11.07;;;;;;;;;;5577580;26;20003;-81
2024/04/12 06:15:15;;;;;;;14.73;13.23;;;;;;;;;;5593211;26;20006;-81
2024/04/12 06:17:49;;;;;;;16.08;14.23;;;;;;;;;;5626569;26;20008;-81
2024/04/12 06:20:30;;;;;;;14.68;13.18;;;;;;;;;;5615473;26;20003;-82
2024/04/12 06:23:06;;;;;;;15.93;14.18;;;;;;;;;;5613325;26;20032;-82
2024/04/12 06:25:49;;;;;;;13.68;12.27;;;;;;;;;;5622881;26;20007;-81
2024/04/12 06:28:26;;;;;;;13.73;12.27;;;;;;;;;;5587514;26;20398;-81
2024/04/12 06:31:00;;;;;;;10.90;9.80;;;;;;;;;;5560507;26;20007;-81
2024/04/12 06:33:34;;;;;;;11.75;10.40;;;;;;;;;;5607746;26;20002;-82
2024/04/12 06:36:11;;;;;;;11.53;10.43;;;;;;;;;;5590134;26;20007;-81
2024/04/12 06:38:44;;;;;;;11.98;10.88;;;;;;;;;;5593634;26;20007;-81
2024/04/12 06:41:23;;;;;;;10.68;9.63;;;;;;;;;;5598021;26;20050;-81
2024/04/12 06:43:57;;;;;;;9.43;8.52;;;;;;;;;;5622480;26;20008;-81
2024/04/12 06:46:35;;;;;;;10.98;9.80;;;;;;;;;;5601865;26;20007;-81
2024/04/12 06:49:08;;;;;;;11.20;10.10;;;;;;;;;;5604713;26;20017;-82
2024/04/12 06:52:08;;;;;;;11.68;10.30;;;;;;;;;;5625808;26;20030;-81
2024/04/12 06:54:41;;;;;;;11.73;10.52;;;;;;;;;;5584532;26;20003;-81
2024/04/12 06:57:21;;;;;;;10.13;9.18;;;;;;;;;;5590651;26;20037;-81
2024/04/12 07:00:07;;;;;;;10.10;9.05;;;;;;;;;;5654980;26;21074;-80
2024/04/12 07:02:46;;;;;;;10.80;9.70;;;;;;;;;;5618599;26;20025;-80
2024/04/12 07:05:21;;;;;;;10.27;9.30;;;;;;;;;;5623842;26;20003;-82
2024/04/12 07:07:57;;;;;;;10.25;9.15;;;;;;;;;;5614723;26;20007;-81
2024/04/12 07:10:32;;;;;;;10.75;8.52;;;;;;;;;;5589392;26;20712;-81
2024/04/12 07:13:07;;;;;;;10.65;9.30;;;;;;;;;;5616250;26;20077;-79
2024/04/12 07:15:48;;;;;;;10.77;9.70;;;;;;;;;;5618339;26;20444;-79
2024/04/12 07:18:22;;;;;;;11.35;10.25;;;;;;;;;;5619349;26;20004;-79
2024/04/12 07:21:14;;;;;;;11.55;10.30;;;;;;;;;;5584572;26;20011;-80
2024/04/12 07:23:54;;;;;;;12.13;10.32;;;;;;;;;;5625326;26;20008;-78
2024/04/12 07:26:32;;;;;;;12.75;11.20;;;;;;;;;;5582370;26;20007;-80
2024/04/12 07:29:07;;;;;;;11.75;10.55;;;;;;;;;;5591332;26;20068;-81
2024/04/12 07:31:42;;;;;;;12.02;10.82;;;;;;;;;;5617717;26;20014;-81
2024/04/12 07:34:16;;;;;;;;;;;;;;;;;;5628684;26;20017;-82
2024/04/12 07:36:52;;;;;;;15.10;13.60;;;;;;;;;;5590626;26;19998;-82
2024/04/12 07:39:24;;;;;;;15.07;13.52;;;;;;;;;;5625771;26;20002;-82
2024/04/12 07:42:08;;;;;;;15.43;13.93;;;;;;;;;;5587866;26;20018;-82
2024/04/12 07:44:45;;;;;;;16.05;14.55;;;;;;;;;;5567371;26;20006;-82
2024/04/12 07:47:29;;;;;;;15.25;13.82;;;;;;;;;;5590561;26;20012;-82
2024/04/12 07:50:08;;;;;;;17.17;15.52;;;;;;;;;;5644919;26;20017;-82
2024/04/12 07:52:50;;;;;;;16.20;14.70;;;;;;;;;;5612001;26;20007;-82
2024/04/12 07:55:25;;;;;;;18.77;16.98;;;;;;;;;;5589481;26;20479;-81
2024/04/12 07:58:01;;;;;;;18.65;16.85;;;;;;;;;;5618646;26;20039;-81
2024/04/12 08:00:48;;;;;;;22.23;20.23;;;;;;;;;;5649263;26;20820;-82
2024/04/12 08:03:36;;;;;;;21.52;19.55;;;;;;;;;;5604651;26;20018;-82
2024/04/12 08:06:18;;;;;;;24.55;20.88;;;;;;;;;;5629535;26;20008;-82
2024/04/12 08:09:03;;;;;;;22.45;20.38;;;;;;;;;;5643135;26;20448;-82
2024/04/12 08:11:41;;;;;;;22.48;20.38;;;;;;;;;;5624061;26;20011;-82
2024/04/12 08:14:20;;;;;;;22.98;21.00;;;;;;;;;;5621895;26;20553;-81
2024/04/12 08:17:01;;;;;;;23.90;21.60;;;;;;;;;;5659215;26;20015;-83
2024/04/12 08:19:45;;;;;;;25.30;22.85;;;;;;;;;;5605236;26;20045;-82
2024/04/12 08:22:21;;;;;;;27.30;24.65;;;;;;;;;;5611990;26;20684;-83
2024/04/12 08:25:01;;;;;;;26.52;23.92;;;;;;;;;;5619173;26;20003;-83
2024/04/12 08:27:35;;;;;;;27.48;24.77;;;;;;;;;;5613996;26;20014;-82
2024/04/12 08:30:13;;;;;;;29.05;26.25;;;;;;;;;;5608385;26;20014;-83
2024/04/12 08:32:51;;;;;;;27.48;25.08;;;;;;;;;;5592958;26;20022;-82
2024/04/12 08:35:29;;;;;;;28.13;25.55;;;;;;;;;;5620287;26;20503;-82
2024/04/12 08:38:12;;;;;;;30.25;27.20;;;;;;;;;;5616068;26;20007;-82
2024/04/12 08:40:48;;;;;;;27.00;24.45;;;;;;;;;;5621243;26;20021;-82
2024/04/12 08:43:41;;;;;;;27.05;24.65;;;;;;;;;;5614381;26;20013;-82
2024/04/12 08:46:25;;;;;;;26.47;23.87;;;;;;;;;;5609454;26;19999;-82
2024/04/12 08:49:03;;;;;;;25.27;22.67;;;;;;;;;;5609986;26;19998;-82
2024/04/12 08:51:46;;;;;;;24.33;21.92;;;;;;;;;;5616058;26;19995;-82
2024/04/12 08:54:18;;;;;;;25.00;22.63;;;;;;;;;;5611652;26;20015;-83
2024/04/12 08:57:00;;;;;;;23.73;21.33;;;;;;;;;;5645396;26;20055;-82
2024/04/12 08:59:46;;;;;;;22.48;20.05;;;;;;;;;;5618710;26;20017;-83
2024/04/12 09:02:25;;;;;;;33.08;22.55;;;;;;;;;;5617985;26;20084;-82
2024/04/12 09:04:59;;;;;;;20.83;18.77;;;;;;;;;;5616160;26;19995;-82
2024/04/12 09:07:35;;;;;;;19.33;17.42;;;;;;;;;;5574758;26;20087;-81
2024/04/12 09:10:15;;;;;;;20.10;18.05;;;;;;;;;;5620622;26;20019;-82
2024/04/12 09:12:48;;;;;;;20.08;18.05;;;;;;;;;;5617251;26;20390;-82
2024/04/12 09:15:27;;;;;;;20.10;17.92;;;;;;;;;;5620918;26;20003;-82
2024/04/12 09:18:00;;;;;;;19.15;17.33;;;;;;;;;;5621389;26;20017;-82
2024/04/12 09:20:38;;;;;;;18.35;16.60;;;;;;;;;;5620841;26;20751;-81
2024/04/12 09:23:14;;;;;;;18.30;16.48;;;;;;;;;;5529044;26;20023;-82
2024/04/12 09:25:54;;;;;;;17.88;16.08;;;;;;;;;;5608342;26;20076;-82
2024/04/12 09:28:29;;;;;;;17.13;14.55;;;;;;;;;;5615407;26;20452;-82
2024/04/12 09:34:22;;;;;;;14.60;13.20;;;;;;;;;;5620137;26;20003;-83
2024/04/12 09:37:28;;;;;;;15.27;13.70;;;;;;;;;;5622518;26;20003;-82
2024/04/12 09:40:16;;;;;;;14.43;12.88;;;;;;;;;;5607408;26;20035;-81
2024/04/12 09:43:24;;;;;;;16.45;14.00;;;;;;;;;;5613760;26;20026;-82
2024/04/12 09:45:52;;;;;;;14.93;13.15;;;;;;;;;;5616960;26;20088;-82
2024/04/12 10:38:19;;;;;;;11.90;9.63;;;;;;;;;;5549386;26;20423;-82
2024/04/12 10:41:11;;;;;;;10.88;8.75;;;;;;;;;;5558771;26;20006;-82
2024/04/12 10:43:51;;;;;;;10.40;8.73;;;;;;;;;;5593616;26;20428;-81
2024/04/12 10:46:29;;;;;;;9.57;8.45;;;;;;;;;;5617676;26;20014;-82
2024/04/12 10:49:09;;;;;;;9.10;7.95;;;;;;;;;;5585813;26;20011;-82
2024/04/12 10:51:44;;;;;;;11.60;8.68;;;;;;;;;;5557899;26;20015;-82
2024/04/12 10:54:23;;;;;;;11.13;9.40;;;;;;;;;;5591719;26;20001;-82
2024/04/12 10:57:03;;;;;;;10.27;8.25;;;;;;;;;;5618789;26;19998;-81
2024/04/12 10:59:42;;;;;;;9.13;7.45;;;;;;;;;;5606411;26;20031;-82
2024/04/12 11:02:25;;;;;;;10.00;7.95;;;;;;;;;;5585201;26;19998;-82
2024/04/12 11:05:24;;;;;;;8.88;7.97;;;;;;;;;;5622714;26;19994;-82
2024/04/12 11:08:10;;;;;;;11.20;8.32;;;;;;;;;;5614660;26;20015;-83
2024/04/12 11:11:15;;;;;;;8.85;7.75;;;;;;;;;;5594755;26;20007;-82
2024/04/12 11:13:52;;;;;;;9.07;7.20;;;;;;;;;;5589662;26;20325;-82
2024/04/12 11:31:14;;;;;;;8.63;5.70;;;;;;;;;;5577788;26;20341;-82
2024/04/12 11:33:53;;;;;;;6.68;4.78;;;;;;;;;;5622429;26;20582;-83
2024/04/12 11:36:45;;;;;;;7.32;4.97;;;;;;;;;;5618043;26;19999;-82
2024/04/12 11:39:25;;;;;;;8.48;5.03;;;;;;;;;;5610556;26;20825;-85
2024/04/12 11:42:00;;;;;;;7.32;4.78;;;;;;;;;;5589623;26;20009;-83
2024/04/12 11:44:38;;;;;;;7.88;4.45;;;;;;;;;;5558959;26;20003;-83
2024/04/12 11:47:16;;;;;;;7.80;4.75;;;;;;;;;;5591634;26;20008;-83
2024/04/12 11:49:57;;;;;;;8.30;4.55;;;;;;;;;;5619268;26;20003;-84
2024/04/12 11:52:38;;;;;;;7.68;4.38;;;;;;;;;;5612926;26;20013;-84
2024/04/12 11:55:21;;;;;;;5.25;3.90;;;;;;;;;;5583078;26;20070;-83
2024/04/12 11:57:53;;;;;;;9.05;4.07;;;;;;;;;;5589674;26;20534;-84
2024/04/12 12:00:31;;;;;;;7.97;4.07;;;;;;;;;;5597800;26;20018;-82
2024/04/12 12:03:05;;;;;;;5.43;3.63;;;;;;;;;;5612970;26;20018;-83
2024/04/12 12:05:43;;;;;;;5.50;3.40;;;;;;;;;;5617491;26;19998;-84
2024/04/12 12:08:25;;;;;;;5.40;3.45;;;;;;;;;;5627976;26;20011;-82
2024/04/12 12:11:05;;;;;;;5.10;3.53;;;;;;;;;;5592545;26;19998;-80
2024/04/12 12:13:40;;;;;;;7.47;3.63;;;;;;;;;;5639787;26;20052;-85
2024/04/12 12:16:20;;;;;;;4.45;3.00;;;;;;;;;;5626478;26;21329;-86
2024/04/12 12:18:57;;;;;;;4.80;3.38;;;;;;;;;;5612569;26;20811;-85
2024/04/12 12:21:31;;;;;;;4.45;3.00;;;;;;;;;;5617694;26;20003;-86
2024/04/12 12:24:10;;;;;;;5.40;3.60;;;;;;;;;;5620698;26;20080;-85
2024/04/12 12:26:45;;;;;;;5.75;3.72;;;;;;;;;;5615505;26;20077;-87
2024/04/12 12:29:20;;;;;;;6.80;3.08;;;;;;;;;;5591499;26;20013;-86
2024/04/12 12:31:56;;;;;;;7.38;3.72;;;;;;;;;;5590085;26;20027;-86
2024/04/12 12:34:29;;;;;;;6.78;4.00;;;;;;;;;;5550718;26;20015;-86
2024/04/12 12:37:04;;;;;;;8.13;3.90;;;;;;;;;;5554085;26;20449;-86
2024/04/12 12:39:41;;;;;;;4.38;3.28;;;;;;;;;;5624090;26;20026;-85
2024/04/12 12:42:16;;;;;;;5.30;3.55;;;;;;;;;;5566221;26;20035;-85
2024/04/12 12:44:48;;;;;;;4.47;3.65;;;;;;;;;;5572823;26;20006;-85
2024/04/12 12:47:25;;;;;;;5.38;3.67;;;;;;;;;;5608964;26;20007;-85
2024/04/12 12:50:01;;;;;;;5.53;3.90;;;;;;;;;;5590018;26;20004;-81
2024/04/12 12:52:39;;;;;;;6.15;3.97;;;;;;;;;;5588875;26;20024;-84
2024/04/12 12:55:16;;;;;;;6.97;4.45;;;;;;;;;;5609290;26;20040;-85
2024/04/12 12:58:08;;;;;;;7.43;4.13;;;;;;;;;;5616508;26;20022;-85
2024/04/12 13:00:44;;;;;;;5.63;3.43;;;;;;;;;;5589149;26;20013;-85
2024/04/12 13:03:25;;;;;;;5.97;3.88;;;;;;;;;;5547681;26;20770;-85
2024/04/12 13:06:06;;;;;;;5.75;3.40;;;;;;;;;;5560812;26;20440;-85
2024/04/12 13:08:47;;;;;;;4.55;3.58;;;;;;;;;;5598877;26;20007;-83
2024/04/12 13:11:25;;;;;;;6.28;4.20;;;;;;;;;;5552348;26;20008;-84
2024/04/12 13:14:09;;;;;;;5.30;3.60;;;;;;;;;;5580440;26;20018;-82
2024/04/12 13:16:49;;;;;;;;;;;;;;;;;;5568729;26;20007;-82
2024/04/12 13:19:23;;;;;;;8.70;3.92;;;;;;;;;;5619944;26;19924;-81
2024/04/12 13:22:01;;;;;;;5.18;3.85;;;;;;;;;;5615252;26;20002;-82
2024/04/12 13:24:35;;;;;;;6.35;3.55;;;;;;;;;;5619179;26;20010;-83
2024/04/12 13:27:09;;;;;;;;;;;;;;;;;;5621675;26;20082;-83
2024/04/12 13:29:48;;;;;;;6.30;3.65;;;;;;;;;;5630726;26;19925;-84
2024/04/12 13:32:20;;;;;;;5.15;3.25;;;;;;;;;;5625321;26;20014;-86
2024/04/12 13:34:59;;;;;;;5.60;3.70;;;;;;;;;;5604032;26;20088;-88
2024/04/12 13:37:34;;;;;;;4.10;2.95;;;;;;;;;;5607729;26;19996;-88
2024/04/12 13:40:10;;;;;;;5.93;3.47;;;;;;;;;;5600182;26;20004;-87
2024/04/12 13:42:42;;;;;;;6.40;4.10;;;;;;;;;;5572241;26;20053;-88
2024/04/12 13:51:05;;;;;;;5.32;3.45;;;;;;;;;;5629198;26;21207;-88
2024/04/12 13:53:43;;;;;;;4.22;3.05;;;;;;;;;;5577433;26;20007;-89
2024/04/12 13:56:28;;;;;;;5.65;3.80;;;;;;;;;;5595975;26;20019;-88
2024/04/12 13:59:01;;;;;;;6.50;3.72;;;;;;;;;;5592426;26;20035;-88
2024/04/12 14:01:40;;;;;;;5.90;3.80;;;;;;;;;;5635702;26;20003;-90
2024/04/12 14:04:18;;;;;;;5.18;3.60;;;;;;;;;;5638468;26;20076;-87
2024/04/12 14:10:04;;;;;;;7.32;3.72;;;;;;;;;;5802838;21;20003;-88
2024/04/12 14:15:48;;;;;;;5.18;3.53;;;;;;;;;;1141351;21;20388;-80
2024/04/12 14:18:26;;;;;;;5.43;3.92;;;;;;;;;;5470866;26;20006;-85
2024/04/12 14:21:02;;;;;;;4.53;3.28;;;;;;;;;;5452338;26;20013;-86
2024/04/12 14:23:36;;;;;;;6.13;3.50;;;;;;;;;;5483790;26;20414;-84
2024/04/12 14:26:13;;;;;;;4.78;3.10;;;;;;;;;;5480871;26;20439;-84
2024/04/12 14:28:45;;;;;;;5.43;3.17;;;;;;;;;;5484104;26;20020;-85
2024/04/12 14:31:26;;;;;;;6.15;2.97;;;;;;;;;;5483478;26;20020;-84
2024/04/12 14:34:07;;;;;;;6.38;3.13;;;;;;;;;;5456407;26;20005;-84
2024/04/12 14:36:47;;;;;;;5.75;3.10;;;;;;;;;;5457897;27;21064;-85
2024/04/12 14:39:28;;;;;;;9.00;3.50;;;;;;;;;;5479285;26;20005;-84
2024/04/12 14:42:06;;;;;;;8.38;3.67;;;;;;;;;;5479502;26;20085;-85
2024/04/12 14:44:39;;;;;;;5.95;3.58;;;;;;;;;;5452555;26;20130;-85
2024/04/12 14:47:18;;;;;;;5.18;3.30;;;;;;;;;;5475470;26;20020;-85
2024/04/12 14:49:59;;;;;;;7.15;3.00;;;;;;;;;;5455429;27;20014;-85
2024/04/12 14:52:38;;;;;;;5.88;3.33;;;;;;;;;;5426990;27;20013;-84
2024/04/12 14:55:15;;;;;;;6.10;3.22;;;;;;;;;;5483235;26;20481;-84
2024/04/12 14:57:49;;;;;;;3.80;3.00;;;;;;;;;;5473001;26;20059;-85
2024/04/12 15:00:26;;;;;;;6.70;3.38;;;;;;;;;;5427248;26;20021;-85
2024/04/12 15:49:21;;;;;;;3.75;2.47;;;;;;;;;;5479302;26;20706;-83
2024/04/12 15:51:56;;;;;;;8.63;3.08;;;;;;;;;;5475950;26;20001;-83
2024/04/12 15:54:29;;;;;;;4.35;2.38;;;;;;;;;;5455668;26;20914;-85
2024/04/12 16:11:38;;;;;;;5.95;2.92;;;;;;;;;;5499899;27;20044;-85
2024/04/12 16:14:20;;;;;;;7.35;3.20;;;;;;;;;;5496488;26;20010;-84
2024/04/12 16:16:54;;;;;;;7.32;3.10;;;;;;;;;;5574088;21;20002;-84
2024/04/12 16:19:29;;;;;;;5.47;2.83;;;;;;;;;;5616524;21;20019;-88
2024/04/12 16:22:03;;;;;;;5.30;2.70;;;;;;;;;;5509055;26;20015;-84
2024/04/12 16:24:38;;;;;;;4.78;2.20;;;;;;;;;;5538261;26;20040;-85
2024/04/12 16:27:14;;;;;;;5.57;3.03;;;;;;;;;;5550392;26;20595;-85
2024/04/12 16:29:54;;;;;;;3.78;2.45;;;;;;;;;;5520321;26;19997;-85
2024/04/12 16:32:26;;;;;;;6.07;2.65;;;;;;;;;;5541194;26;20021;-84
2024/04/12 16:35:01;;;;;;;4.72;2.50;;;;;;;;;;5495346;26;20087;-84
2024/04/12 16:37:32;;;;;;;;;;;;;;;;;;5525833;26;20020;-85
2024/04/12 16:40:11;;;;;;;5.88;2.60;;;;;;;;;;5506092;26;20002;-85
2024/04/12 16:42:42;;;;;;;6.07;2.85;;;;;;;;;;5542107;26;20320;-84
2024/04/12 16:45:23;;;;;;;5.18;2.30;;;;;;;;;;5507721;26;20005;-85
2024/04/12 16:47:59;;;;;;;5.35;2.50;;;;;;;;;;5525887;26;20004;-84
2024/04/12 16:50:34;;;;;;;7.22;2.28;;;;;;;;;;5514450;26;20397;-84
2024/04/12 16:53:15;;;;;;;6.07;2.90;;;;;;;;;;5488517;26;19997;-84
2024/04/12 16:55:47;;;;;;;6.78;2.88;;;;;;;;;;5541781;26;20008;-84
2024/04/12 16:58:25;;;;;;;6.00;2.50;;;;;;;;;;5508131;26;20004;-84
2024/04/12 17:01:01;;;;;;;3.80;2.42;;;;;;;;;;5517642;26;20008;-84
2024/04/12 17:03:38;;;;;;;6.93;3.08;;;;;;;;;;5518086;26;20388;-84
2024/04/12 17:06:13;;;;;;;4.90;2.35;;;;;;;;;;5484182;26;20026;-84
2024/04/12 17:08:50;;;;;;;3.80;2.67;;;;;;;;;;5543087;26;20036;-84
2024/04/12 17:11:24;;;;;;;6.57;2.85;;;;;;;;;;5539212;26;20015;-85
2024/04/12 17:14:01;;;;;;;7.00;2.85;;;;;;;;;;5542438;26;20015;-84
2024/04/12 17:16:39;;;;;;;5.75;3.03;;;;;;;;;;5515320;26;20480;-84
2024/04/12 17:19:16;;;;;;;4.60;2.63;;;;;;;;;;5538837;26;20016;-85
2024/04/12 17:21:53;;;;;;;4.18;2.88;;;;;;;;;;5541732;26;20004;-84
2024/04/12 17:24:28;;;;;;;4.55;2.72;;;;;;;;;;5547443;26;21134;-84
2024/04/12 17:27:06;;;;;;;5.78;3.20;;;;;;;;;;5491213;26;20015;-84
2024/04/12 17:29:43;;;;;;;5.40;3.08;;;;;;;;;;5518372;26;20028;-88
2024/04/12 17:32:32;;;;;;;6.72;3.20;;;;;;;;;;5539256;26;20000;-85
2024/04/12 17:35:10;;;;;;;6.00;3.00;;;;;;;;;;5551298;26;20502;-86
2024/04/12 17:37:44;;;;;;;5.50;3.10;;;;;;;;;;5549809;26;20022;-85
2024/04/12 17:40:20;;;;;;;9.93;3.07;;;;;;;;;;5514554;26;20016;-87
2024/04/12 17:42:56;;;;;;;6.35;2.80;;;;;;;;;;5530006;26;20022;-85
2024/04/12 17:45:34;;;;;;;6.43;2.90;;;;;;;;;;5483515;26;20059;-86
2024/04/12 17:48:14;;;;;;;6.22;3.10;;;;;;;;;;5545587;26;20023;-86
2024/04/12 17:50:55;;;;;;;7.90;3.30;;;;;;;;;;5546364;26;20765;-85
2024/04/12 17:53:34;;;;;;;6.18;3.05;;;;;;;;;;5549906;26;20019;-87
2024/04/12 17:56:09;;;;;;;4.80;2.67;;;;;;;;;;5544540;26;20004;-81
2024/04/12 17:58:43;;;;;;;;;;;;;;;;;;5554876;26;20170;-85
2024/04/12 18:01:19;;;;;;;5.47;2.85;;;;;;;;;;5512839;26;19925;-83
2024/04/12 18:04:06;;;;;;;4.70;2.80;;;;;;;;;;5516694;26;20016;-82